createdAt,value
2023-06-28T00:00:40.963Z,62.37
2023-06-28T00:03:12.240Z,63.13
2023-06-28T00:05:38.944Z,62.55
2023-06-28T00:08:05.666Z,62.73
2023-06-28T00:10:32.456Z,62.16
2023-06-28T00:12:59.170Z,63.09
2023-06-28T00:15:25.650Z,62.37
2023-06-28T00:17:52.193Z,63.07
2023-06-28T00:20:18.777Z,62.73
2023-06-28T00:22:45.356Z,62.26
2023-06-28T00:25:11.913Z,63.43
2023-06-28T00:27:38.602Z,64.56
2023-06-28T00:30:05.718Z,64.49
2023-06-28T00:32:32.233Z,64.25
2023-06-28T00:34:58.751Z,64.80
2023-06-28T00:37:25.973Z,64.91
2023-06-28T00:39:52.492Z,64.29
2023-06-28T00:42:18.971Z,63.82
2023-06-28T00:44:45.473Z,64.75
2023-06-28T00:47:11.938Z,65.84
2023-06-28T00:49:39.111Z,66.74
2023-06-28T00:52:07.117Z,67.36
2023-06-28T00:54:33.690Z,67.94
2023-06-28T00:57:00.622Z,68.40
2023-06-28T00:59:27.632Z,69.35
2023-06-28T01:01:56.079Z,71.00
2023-06-28T01:04:22.923Z,71.61
2023-06-28T01:06:55.631Z,70.89
2023-06-28T01:09:24.022Z,71.99
2023-06-28T01:11:52.346Z,70.95
2023-06-28T01:14:19.531Z,70.68
2023-06-28T01:16:50.747Z,72.30
2023-06-28T01:19:17.751Z,72.80
2023-06-28T01:21:46.835Z,74.93
2023-06-28T01:24:14.053Z,73.62
2023-06-28T01:26:40.893Z,77.20
2023-06-28T01:29:07.941Z,76.54
2023-06-28T01:31:37.407Z,78.50
2023-06-28T01:34:03.928Z,79.70
2023-06-28T01:36:30.679Z,79.72
2023-06-28T01:38:57.312Z,80.52
2023-06-28T01:41:24.540Z,80.39
2023-06-28T01:43:51.066Z,81.98
2023-06-28T01:46:17.731Z,82.73
2023-06-28T01:48:44.229Z,83.13
2023-06-28T01:51:11.120Z,83.27
2023-06-28T01:53:37.582Z,85.30
2023-06-28T01:56:04.158Z,85.47
2023-06-28T01:58:30.583Z,86.38
2023-06-28T02:00:57.186Z,87.23
2023-06-28T02:03:23.851Z,86.64
2023-06-28T02:05:50.372Z,86.18
2023-06-28T02:08:17.092Z,85.80
2023-06-28T02:10:43.737Z,86.37
2023-06-28T02:13:10.490Z,85.68
2023-06-28T02:15:37.096Z,86.25
2023-06-28T02:18:04.829Z,85.65
2023-06-28T02:20:31.311Z,85.45
2023-06-28T02:22:57.824Z,86.48
2023-06-28T02:25:24.271Z,86.31
2023-06-28T02:27:50.785Z,88.44
2023-06-28T02:30:17.339Z,90.08
2023-06-28T02:32:43.811Z,88.76
2023-06-28T02:35:10.282Z,90.85
2023-06-28T02:37:36.972Z,90.19
2023-06-28T02:40:04.218Z,90.94
2023-06-28T02:42:30.656Z,90.83
2023-06-28T02:44:58.444Z,90.87
2023-06-28T02:47:24.899Z,90.96
2023-06-28T02:49:51.328Z,90.72
2023-06-28T02:52:17.804Z,92.23
2023-06-28T02:54:44.272Z,91.87
2023-06-28T02:57:11.367Z,91.30
2023-06-28T02:59:37.937Z,91.05
2023-06-28T03:02:05.729Z,92.11
2023-06-28T03:04:33.954Z,90.79
2023-06-28T03:07:00.515Z,91.03
2023-06-28T03:09:27.040Z,91.20
2023-06-28T03:11:53.505Z,90.95
2023-06-28T03:14:20.048Z,90.90
2023-06-28T03:16:46.489Z,92.37
2023-06-28T03:19:12.934Z,89.91
2023-06-28T03:21:39.525Z,89.22
2023-06-28T03:24:06.178Z,90.62
2023-06-28T03:26:32.624Z,90.37
2023-06-28T03:28:59.602Z,91.77
2023-06-28T03:31:26.237Z,91.02
2023-06-28T03:33:52.748Z,90.54
2023-06-28T03:36:19.189Z,90.80
2023-06-28T03:38:45.681Z,89.95
2023-06-28T03:41:14.138Z,89.11
2023-06-28T03:43:40.614Z,90.72
2023-06-28T03:46:07.139Z,90.25
2023-06-28T03:48:33.616Z,91.12
2023-06-28T03:51:00.103Z,90.18
2023-06-28T03:53:26.558Z,89.47
2023-06-28T03:55:53.087Z,89.16
2023-06-28T03:58:19.552Z,89.03
2023-06-28T04:00:46.089Z,87.70
2023-06-28T04:03:12.680Z,86.16
2023-06-28T04:05:39.204Z,86.79
2023-06-28T04:08:06.752Z,87.69
2023-06-28T04:10:33.223Z,89.24
2023-06-28T04:12:59.709Z,89.73
2023-06-28T04:15:26.119Z,89.67
2023-06-28T04:17:52.725Z,90.51
2023-06-28T04:20:19.594Z,90.13
2023-06-28T04:22:46.358Z,90.18
2023-06-28T04:25:12.989Z,90.33
2023-06-28T04:27:39.698Z,89.20
2023-06-28T04:30:06.786Z,89.87
2023-06-28T04:32:33.270Z,90.58
2023-06-28T04:35:02.686Z,90.19
2023-06-28T04:37:32.402Z,89.95
2023-06-28T04:39:59.705Z,90.08
2023-06-28T04:42:26.380Z,89.17
2023-06-28T04:44:52.832Z,87.02
2023-06-28T04:47:19.259Z,87.10
2023-06-28T04:49:50.540Z,87.52
2023-06-28T04:52:19.895Z,86.34
2023-06-28T04:54:46.871Z,87.60
2023-06-28T04:57:14.687Z,88.94
2023-06-28T04:59:41.357Z,88.86
2023-06-28T05:02:07.961Z,88.19
2023-06-28T05:04:34.712Z,89.20
2023-06-28T05:07:07.524Z,89.64
2023-06-28T05:09:35.353Z,89.94
2023-06-28T05:12:03.505Z,90.60
2023-06-28T05:14:30.745Z,91.13
2023-06-28T05:16:57.273Z,92.38
2023-06-28T05:19:24.478Z,93.13
2023-06-28T05:21:51.834Z,91.75
2023-06-28T05:24:19.427Z,90.53
2023-06-28T05:26:46.256Z,90.32
2023-06-28T05:29:12.755Z,90.44
2023-06-28T05:31:41.405Z,90.41
2023-06-28T05:34:07.894Z,91.41
2023-06-28T05:36:34.466Z,91.72
2023-06-28T05:39:00.959Z,92.08
2023-06-28T05:41:27.378Z,91.75
2023-06-28T05:43:53.805Z,91.48
2023-06-28T05:46:20.530Z,91.72
2023-06-28T05:48:49.707Z,90.69
2023-06-28T05:51:16.238Z,89.09
2023-06-28T05:53:42.959Z,89.69
2023-06-28T05:56:09.431Z,88.98
2023-06-28T05:58:35.869Z,89.46
2023-06-28T06:01:02.662Z,90.13
2023-06-28T06:03:31.731Z,88.98
2023-06-28T06:05:58.922Z,88.81
2023-06-28T06:08:25.422Z,87.88
2023-06-28T06:10:51.943Z,87.21
2023-06-28T06:13:18.489Z,88.13
2023-06-28T06:15:44.940Z,88.53
2023-06-28T06:18:11.468Z,88.98
2023-06-28T06:20:37.922Z,89.34
2023-06-28T06:23:04.408Z,88.16
2023-06-28T06:25:30.908Z,88.41
2023-06-28T06:27:57.402Z,87.57
2023-06-28T06:30:24.021Z,86.88
2023-06-28T06:32:51.119Z,87.59
2023-06-28T06:35:17.645Z,87.35
2023-06-28T06:37:46.876Z,87.92
2023-06-28T06:40:13.381Z,87.76
2023-06-28T06:42:42.725Z,87.17
2023-06-28T06:45:31.349Z,85.18
2023-06-28T06:47:57.857Z,83.88
2023-06-28T06:50:24.364Z,84.26
2023-06-28T06:52:51.629Z,84.04
2023-06-28T06:55:18.180Z,83.30
2023-06-28T06:57:44.664Z,83.56
2023-06-28T07:00:11.693Z,82.34
2023-06-28T07:02:38.178Z,81.90
2023-06-28T07:05:04.913Z,80.93
2023-06-28T07:07:31.542Z,80.70
2023-06-28T07:09:58.059Z,79.66
2023-06-28T07:12:24.521Z,78.95
2023-06-28T07:14:51.075Z,78.42
2023-06-28T07:17:17.538Z,78.14
2023-06-28T07:19:44.026Z,79.84
2023-06-28T07:22:10.505Z,81.76
2023-06-28T07:24:37.002Z,84.75
2023-06-28T07:27:03.792Z,83.85
2023-06-28T07:29:30.241Z,83.26
2023-06-28T07:31:56.797Z,79.21
2023-06-28T07:34:23.436Z,78.64
2023-06-28T07:36:49.957Z,77.33
2023-06-28T07:39:16.384Z,75.51
2023-06-28T07:41:42.852Z,76.10
2023-06-28T07:44:09.314Z,75.09
2023-06-28T07:46:35.919Z,75.11
2023-06-28T07:49:02.484Z,75.12
2023-06-28T07:51:28.956Z,73.86
2023-06-28T07:53:55.393Z,72.60
2023-06-28T07:56:23.044Z,72.54
2023-06-28T07:58:49.656Z,72.70
2023-06-28T08:01:16.440Z,73.48
2023-06-28T08:03:42.959Z,72.41
2023-06-28T08:06:09.474Z,72.83
2023-06-28T08:08:35.894Z,73.76
2023-06-28T08:11:02.411Z,71.31
2023-06-28T08:13:28.915Z,70.13
2023-06-28T08:15:55.342Z,68.28
2023-06-28T08:18:21.792Z,68.11
2023-06-28T08:20:49.028Z,68.16
2023-06-28T08:23:15.633Z,69.54
2023-06-28T08:25:42.637Z,69.44
2023-06-28T08:28:09.388Z,68.34
2023-06-28T08:30:35.900Z,67.05
2023-06-28T08:33:04.048Z,67.12
2023-06-28T08:35:30.646Z,65.54
2023-06-28T08:37:57.438Z,62.45
2023-06-28T08:40:28.818Z,62.00
2023-06-28T08:43:03.047Z,62.99
2023-06-28T08:45:33.661Z,62.03
2023-06-28T08:48:04.994Z,59.49
2023-06-28T08:50:39.824Z,62.87
2023-06-28T08:53:09.368Z,62.38
2023-06-28T08:55:36.453Z,63.78
2023-06-28T08:58:03.434Z,63.32
2023-06-28T09:00:29.969Z,64.60
2023-06-28T09:02:58.056Z,64.18
2023-06-28T09:05:24.685Z,63.58
2023-06-28T09:07:52.368Z,62.08
2023-06-28T09:10:19.432Z,63.93
2023-06-28T09:12:46.437Z,60.85
2023-06-28T09:15:13.251Z,59.31
2023-06-28T09:17:39.966Z,59.97
2023-06-28T09:20:20.351Z,57.82
2023-06-28T09:22:57.554Z,54.12
2023-06-28T09:25:25.392Z,55.35
2023-06-28T09:27:51.871Z,52.42
2023-06-28T09:30:19.742Z,54.22
2023-06-28T09:32:51.538Z,54.79
2023-06-28T09:35:19.066Z,54.51
2023-06-28T09:37:55.995Z,52.31
2023-06-28T09:40:22.718Z,54.54
2023-06-28T09:42:50.566Z,52.61
2023-06-28T09:45:30.037Z,52.46
2023-06-28T09:48:04.122Z,53.11
2023-06-28T09:50:46.894Z,52.51
2023-06-28T09:53:23.045Z,53.98
2023-06-28T09:55:51.142Z,54.27
2023-06-28T09:58:18.919Z,52.72
2023-06-28T10:00:47.259Z,52.11
2023-06-28T10:03:15.737Z,51.85
2023-06-28T10:05:44.709Z,52.35
2023-06-28T10:08:15.721Z,51.51
2023-06-28T10:10:43.890Z,52.12
2023-06-28T10:13:14.789Z,51.50
2023-06-28T10:16:17.696Z,50.85
2023-06-28T10:18:44.252Z,53.68
2023-06-28T10:21:11.333Z,50.92
2023-06-28T10:23:40.200Z,51.09
2023-06-28T10:26:07.153Z,50.65
2023-06-28T10:28:35.404Z,50.03
2023-06-28T10:31:05.741Z,49.76
2023-06-28T10:33:33.405Z,50.40
2023-06-28T10:36:03.859Z,50.97
2023-06-28T10:38:35.406Z,53.77
2023-06-28T10:41:02.490Z,51.45
2023-06-28T10:43:29.709Z,51.70
2023-06-28T10:45:56.227Z,50.29
2023-06-28T10:48:23.862Z,50.51
2023-06-28T10:50:51.459Z,50.86
2023-06-28T10:53:22.282Z,51.03
2023-06-28T10:56:09.081Z,50.71
2023-06-28T10:58:43.388Z,49.78
2023-06-28T11:01:31.975Z,51.25
2023-06-28T11:04:13.776Z,51.46
2023-06-28T11:06:40.796Z,50.51
2023-06-28T11:09:17.725Z,50.45
2023-06-28T11:11:58.691Z,50.07
2023-06-28T11:14:32.453Z,50.92
2023-06-28T11:17:06.888Z,50.35
2023-06-28T11:19:33.706Z,50.21
2023-06-28T11:22:01.789Z,49.34
2023-06-28T11:24:37.856Z,48.12
2023-06-28T11:27:10.566Z,47.89
2023-06-28T11:29:53.024Z,47.28
2023-06-28T11:32:32.037Z,46.66
2023-06-28T11:34:59.634Z,47.79
2023-06-28T11:37:26.311Z,46.95
2023-06-28T11:39:52.881Z,46.71
2023-06-28T11:42:20.201Z,47.05
2023-06-28T11:44:48.281Z,45.61
2023-06-28T11:47:22.908Z,44.55
2023-06-28T11:49:51.410Z,45.95
2023-06-28T11:52:18.900Z,44.55
2023-06-28T11:54:45.404Z,44.00
2023-06-28T11:57:12.280Z,43.85
2023-06-28T11:59:45.320Z,43.57
2023-06-28T12:02:12.291Z,43.29
2023-06-28T12:04:39.935Z,43.43
2023-06-28T12:07:07.118Z,42.77
2023-06-28T12:09:35.819Z,42.04
2023-06-28T12:12:06.903Z,42.82
2023-06-28T12:14:41.198Z,42.54
2023-06-28T12:17:07.703Z,42.63
2023-06-28T12:19:37.056Z,42.42
2023-06-28T12:22:04.965Z,42.30
2023-06-28T12:24:38.453Z,42.32
2023-06-28T12:27:06.641Z,42.06
2023-06-28T12:29:36.424Z,42.90
2023-06-28T12:32:06.268Z,41.75
2023-06-28T12:34:35.371Z,44.38
2023-06-28T12:37:04.388Z,44.13
2023-06-28T12:39:35.785Z,42.90
2023-06-28T12:42:12.413Z,43.64
2023-06-28T12:44:54.687Z,43.47
2023-06-28T12:47:23.064Z,43.29
2023-06-28T12:49:51.226Z,42.81
2023-06-28T12:52:18.302Z,41.80
2023-06-28T12:54:46.422Z,41.07
2023-06-28T12:57:12.899Z,42.97
2023-06-28T12:59:41.125Z,42.41
2023-06-28T13:02:08.507Z,42.66
2023-06-28T13:04:37.367Z,41.45
2023-06-28T13:07:04.756Z,41.69
2023-06-28T13:09:31.477Z,41.33
2023-06-28T13:11:57.974Z,40.99
2023-06-28T13:14:24.853Z,40.04
2023-06-28T13:16:51.667Z,40.98
2023-06-28T13:19:18.081Z,40.02
2023-06-28T13:21:52.266Z,39.97
2023-06-28T13:24:21.023Z,40.43
2023-06-28T13:26:47.577Z,40.51
2023-06-28T13:29:16.426Z,40.06
2023-06-28T13:31:44.361Z,40.22
2023-06-28T13:34:11.228Z,40.69
2023-06-28T13:36:37.742Z,41.20
2023-06-28T13:39:04.224Z,39.97
2023-06-28T13:41:33.486Z,39.06
2023-06-28T13:44:00.333Z,38.99
2023-06-28T13:46:26.906Z,39.05
2023-06-28T13:48:54.167Z,39.38
2023-06-28T13:51:20.607Z,39.81
2023-06-28T13:53:47.116Z,38.74
2023-06-28T13:56:13.639Z,40.05
2023-06-28T13:58:40.113Z,39.71
2023-06-28T14:01:06.649Z,41.41
2023-06-28T14:03:33.241Z,39.79
2023-06-28T14:05:59.718Z,40.91
2023-06-28T14:08:26.164Z,40.72
2023-06-28T14:10:53.259Z,43.38
2023-06-28T14:13:19.828Z,41.50
2023-06-28T14:15:46.704Z,40.22
2023-06-28T14:18:13.628Z,41.41
2023-06-28T14:20:40.683Z,42.74
2023-06-28T14:23:07.140Z,43.29
2023-06-28T14:25:33.674Z,43.25
2023-06-28T14:28:00.225Z,43.18
2023-06-28T14:30:27.570Z,42.83
2023-06-28T14:32:54.691Z,43.74
2023-06-28T14:35:22.521Z,44.85
2023-06-28T14:37:50.501Z,43.99
2023-06-28T14:40:17.580Z,45.45
2023-06-28T14:42:44.143Z,43.72
2023-06-28T14:45:13.950Z,44.94
2023-06-28T14:47:42.524Z,42.84
2023-06-28T14:50:09.802Z,44.06
2023-06-28T14:52:36.938Z,45.39
2023-06-28T14:55:03.683Z,43.66
2023-06-28T14:57:30.314Z,44.37
2023-06-28T14:59:57.652Z,44.79
2023-06-28T15:02:24.135Z,45.33
2023-06-28T15:04:52.957Z,46.30
2023-06-28T15:07:19.678Z,44.30
2023-06-28T15:09:46.199Z,45.09
2023-06-28T15:12:13.370Z,44.59
2023-06-28T15:14:40.173Z,46.37
2023-06-28T15:17:06.716Z,46.29
2023-06-28T15:19:34.125Z,45.16
2023-06-28T15:22:00.726Z,45.68
2023-06-28T15:24:27.323Z,45.99
2023-06-28T15:26:55.069Z,45.63
2023-06-28T15:29:21.968Z,45.77
2023-06-28T15:31:49.304Z,45.71
2023-06-28T15:34:15.835Z,47.64
2023-06-28T15:36:42.431Z,45.41
2023-06-28T15:39:09.415Z,45.38
2023-06-28T15:41:35.918Z,47.37
2023-06-28T15:44:02.343Z,46.86
2023-06-28T15:46:32.927Z,47.57
2023-06-28T15:48:59.576Z,46.30
2023-06-28T15:51:27.314Z,45.30
2023-06-28T15:53:54.456Z,45.54
2023-06-28T15:56:22.967Z,47.63
2023-06-28T15:58:50.879Z,45.87
2023-06-28T16:01:17.993Z,45.78
2023-06-28T16:03:44.680Z,45.72
2023-06-28T16:06:11.616Z,45.27
2023-06-28T16:08:38.929Z,45.18
2023-06-28T16:11:06.065Z,45.24
2023-06-28T16:13:32.528Z,45.13
2023-06-28T16:16:01.743Z,46.39
2023-06-28T16:18:28.204Z,46.23
2023-06-28T16:20:54.647Z,44.88
2023-06-28T16:23:21.875Z,45.12
2023-06-28T16:25:48.715Z,44.72
2023-06-28T16:28:15.344Z,46.41
2023-06-28T16:30:42.051Z,45.19
2023-06-28T16:33:09.553Z,44.95
2023-06-28T16:35:36.607Z,44.96
2023-06-28T16:38:03.204Z,44.76
2023-06-28T16:40:29.757Z,44.64
2023-06-28T16:42:56.250Z,45.14
2023-06-28T16:45:22.726Z,44.87
2023-06-28T16:47:49.547Z,44.68
2023-06-28T16:50:16.085Z,44.30
2023-06-28T16:52:42.705Z,44.28
2023-06-28T16:55:09.230Z,46.62
2023-06-28T16:57:35.746Z,45.19
2023-06-28T17:00:02.181Z,47.90
2023-06-28T17:02:28.915Z,44.48
2023-06-28T17:04:55.459Z,45.64
2023-06-28T17:07:21.927Z,43.54
2023-06-28T17:09:49.274Z,46.05
2023-06-28T17:12:15.748Z,45.73
2023-06-28T17:14:42.334Z,44.75
2023-06-28T17:17:08.798Z,45.12
2023-06-28T17:19:35.283Z,46.01
2023-06-28T17:22:02.233Z,45.65
2023-06-28T17:24:29.420Z,45.54
2023-06-28T17:26:57.864Z,46.02
2023-06-28T17:29:25.369Z,46.18
2023-06-28T17:31:53.650Z,46.17
2023-06-28T17:34:20.524Z,46.11
2023-06-28T17:36:47.872Z,46.22
2023-06-28T17:39:18.992Z,47.40
2023-06-28T17:41:45.500Z,48.17
2023-06-28T17:44:11.947Z,47.69
2023-06-28T17:46:38.469Z,47.78
2023-06-28T17:49:04.914Z,48.51
2023-06-28T17:51:31.367Z,48.10
2023-06-28T17:53:58.708Z,49.38
2023-06-28T17:56:26.351Z,48.72
2023-06-28T17:58:53.100Z,48.60
2023-06-28T18:01:19.686Z,48.43
2023-06-28T18:03:48.352Z,48.74
2023-06-28T18:06:16.186Z,48.72
2023-06-28T18:08:42.724Z,49.90
2023-06-28T18:11:09.226Z,49.17
2023-06-28T18:13:35.680Z,48.82
2023-06-28T18:16:02.481Z,48.34
2023-06-28T18:18:28.929Z,48.56
2023-06-28T18:20:55.398Z,49.12
2023-06-28T18:23:21.862Z,48.57
2023-06-28T18:25:48.422Z,48.86
2023-06-28T18:28:14.847Z,49.25
2023-06-28T18:30:41.693Z,49.79
2023-06-28T18:33:08.406Z,50.31
2023-06-28T18:35:34.926Z,49.51
2023-06-28T18:38:02.695Z,49.01
2023-06-28T18:40:29.159Z,49.34
2023-06-28T18:42:55.612Z,49.51
2023-06-28T18:45:22.077Z,50.19
2023-06-28T18:47:48.601Z,49.64
2023-06-28T18:50:15.162Z,50.33
2023-06-28T18:52:41.751Z,49.98
2023-06-28T18:55:09.278Z,50.44
2023-06-28T18:57:35.781Z,50.32
2023-06-28T19:00:02.490Z,50.48
2023-06-28T19:02:30.556Z,50.92
2023-06-28T19:04:58.784Z,50.68
2023-06-28T19:07:25.550Z,50.94
2023-06-28T19:09:52.616Z,50.65
2023-06-28T19:12:19.132Z,50.74
2023-06-28T19:14:45.591Z,51.30
2023-06-28T19:17:12.033Z,51.30
2023-06-28T19:19:38.452Z,51.01
2023-06-28T19:22:05.206Z,51.36
2023-06-28T19:24:31.751Z,52.06
2023-06-28T19:26:58.289Z,52.91
2023-06-28T19:29:24.854Z,53.34
2023-06-28T19:31:51.390Z,52.99
2023-06-28T19:34:17.802Z,53.02
2023-06-28T19:36:44.369Z,54.42
2023-06-28T19:39:10.842Z,53.93
2023-06-28T19:41:37.391Z,54.24
2023-06-28T19:44:03.935Z,54.36
2023-06-28T19:46:30.397Z,54.59
2023-06-28T19:48:56.854Z,55.02
2023-06-28T19:51:23.324Z,56.30
2023-06-28T19:53:49.801Z,56.40
2023-06-28T19:56:16.305Z,57.37
2023-06-28T19:58:42.867Z,56.70
2023-06-28T20:01:10.409Z,56.85
2023-06-28T20:03:37.246Z,57.30
2023-06-28T20:06:05.945Z,57.18
2023-06-28T20:08:35.224Z,57.74
2023-06-28T20:11:01.669Z,58.28
2023-06-28T20:13:30.192Z,59.28
2023-06-28T20:15:58.251Z,59.25
2023-06-28T20:18:24.763Z,58.42
2023-06-28T20:20:51.314Z,58.65
2023-06-28T20:23:17.794Z,59.04
2023-06-28T20:25:45.487Z,58.83
2023-06-28T20:28:13.176Z,59.96
2023-06-28T20:30:39.849Z,58.43
2023-06-28T20:33:07.652Z,59.29
2023-06-28T20:35:36.468Z,58.99
2023-06-28T20:38:04.318Z,59.73
2023-06-28T20:40:30.859Z,60.44
2023-06-28T20:42:59.855Z,60.72
2023-06-28T20:45:26.715Z,61.67
2023-06-28T20:47:53.286Z,62.87
2023-06-28T20:50:19.995Z,62.28
2023-06-28T20:52:46.518Z,61.76
2023-06-28T20:55:13.002Z,61.96
2023-06-28T20:57:39.592Z,61.29
2023-06-28T21:00:13.036Z,61.91
2023-06-28T21:02:39.677Z,62.12
2023-06-28T21:05:07.311Z,62.30
2023-06-28T21:07:34.111Z,64.62
2023-06-28T21:10:00.808Z,66.22
2023-06-28T21:12:27.332Z,66.06
2023-06-28T21:14:53.766Z,65.72
2023-06-28T21:17:20.212Z,64.82
2023-06-28T21:19:46.714Z,65.51
2023-06-28T21:22:13.156Z,65.02
2023-06-28T21:24:39.621Z,64.93
2023-06-28T21:27:06.427Z,66.46
2023-06-28T21:29:32.961Z,66.99
2023-06-28T21:31:59.477Z,66.91
2023-06-28T21:34:27.554Z,66.54
2023-06-28T21:36:54.041Z,66.75
2023-06-28T21:39:20.482Z,68.20
2023-06-28T21:41:46.934Z,67.12
2023-06-28T21:44:13.366Z,67.19
2023-06-28T21:46:39.808Z,68.35
2023-06-28T21:49:06.337Z,67.58
2023-06-28T21:51:32.773Z,68.03
2023-06-28T21:53:59.261Z,69.08
2023-06-28T21:56:25.714Z,68.90
2023-06-28T21:58:52.174Z,69.31
2023-06-28T22:01:19.433Z,69.68
2023-06-28T22:03:45.889Z,70.24
2023-06-28T22:06:12.352Z,69.14
2023-06-28T22:08:39.281Z,70.62
2023-06-28T22:11:07.415Z,70.01
2023-06-28T22:13:35.302Z,69.32
2023-06-28T22:16:01.863Z,69.50
2023-06-28T22:18:28.326Z,69.53
2023-06-28T22:20:54.740Z,69.11
2023-06-28T22:23:21.203Z,68.86
2023-06-28T22:25:47.654Z,69.48
2023-06-28T22:28:14.111Z,71.11
2023-06-28T22:30:40.641Z,71.43
2023-06-28T22:33:07.405Z,70.65
2023-06-28T22:35:33.875Z,72.04
2023-06-28T22:38:00.485Z,72.16
2023-06-28T22:40:27.002Z,72.31
2023-06-28T22:42:53.467Z,72.55
2023-06-28T22:45:19.958Z,71.70
2023-06-28T22:47:46.472Z,72.75
2023-06-28T22:50:12.909Z,72.47
2023-06-28T22:52:45.419Z,72.13
2023-06-28T22:55:12.184Z,72.26
2023-06-28T22:57:38.845Z,73.52
2023-06-28T23:00:07.896Z,72.39
2023-06-28T23:02:34.465Z,72.47
2023-06-28T23:05:00.997Z,72.33
2023-06-28T23:07:29.630Z,73.08
2023-06-28T23:09:56.215Z,72.97
2023-06-28T23:12:22.915Z,73.15
2023-06-28T23:14:52.766Z,73.72
2023-06-28T23:17:20.396Z,74.88
2023-06-28T23:19:48.501Z,73.91
2023-06-28T23:22:14.977Z,75.07
2023-06-28T23:24:41.841Z,75.15
2023-06-28T23:27:08.257Z,74.74
2023-06-28T23:29:35.353Z,75.88
2023-06-28T23:32:02.104Z,76.11
2023-06-28T23:34:31.552Z,75.34
2023-06-28T23:36:58.211Z,76.47
2023-06-28T23:39:25.081Z,75.67
2023-06-28T23:41:51.561Z,75.89
2023-06-28T23:44:18.092Z,76.43
2023-06-28T23:46:45.632Z,75.71
2023-06-28T23:49:14.219Z,76.23
2023-06-28T23:51:41.492Z,76.50
2023-06-28T23:54:08.620Z,75.83
2023-06-28T23:56:35.307Z,77.20
2023-06-28T23:59:01.829Z,77.13
